sensor_id;sensor_type;location;lat;lon;timestamp;temperature;humidity
18085;DHT22;9169;44.492;11.372;2024-01-15T00:00:54;6.30;55.90
18085;DHT22;9169;44.492;11.372;2024-01-15T00:03:23;6.40;56.10
18085;DHT22;9169;44.492;11.372;2024-01-15T00:05:56;6.30;56.00
18085;DHT22;9169;44.492;11.372;2024-01-15T00:08:25;6.30;56.00
18085;DHT22;9169;44.492;11.372;2024-01-15T00:10:54;6.30;56.10
18085;DHT22;9169;44.492;11.372;2024-01-15T00:13:22;6.30;56.20
18085;DHT22;9169;44.492;11.372;2024-01-15T00:15:51;6.30;56.20
18085;DHT22;9169;44.492;11.372;2024-01-15T00:18:20;6.30;56.10
18085;DHT22;9169;44.492;11.372;2024-01-15T00:20:49;6.30;56.20
18085;DHT22;9169;44.492;11.372;2024-01-15T00:23:19;6.30;56.20
18085;DHT22;9169;44.492;11.372;2024-01-15T00:25:48;6.30;56.20
18085;DHT22;9169;44.492;11.372;2024-01-15T00:28:16;6.20;56.10
18085;DHT22;9169;44.492;11.372;2024-01-15T00:30:45;6.20;56.10
18085;DHT22;9169;44.492;11.372;2024-01-15T00:33:14;6.30;56.30
18085;DHT22;9169;44.492;11.372;2024-01-15T00:35:43;6.30;56.30
18085;DHT22;9169;44.492;11.372;2024-01-15T00:38:12;6.30;56.30
18085;DHT22;9169;44.492;11.372;2024-01-15T00:40:42;6.30;56.30
18085;DHT22;9169;44.492;11.372;2024-01-15T00:43:10;6.30;56.30
18085;DHT22;9169;44.492;11.372;2024-01-15T00:45:39;6.30;56.40
18085;DHT22;9169;44.492;11.372;2024-01-15T00:48:08;6.30;57.00
18085;DHT22;9169;44.492;11.372;2024-01-15T00:50:37;6.30;56.60
18085;DHT22;9169;44.492;11.372;2024-01-15T00:53:09;6.30;57.10
18085;DHT22;9169;44.492;11.372;2024-01-15T00:55:38;6.40;56.70
18085;DHT22;9169;44.492;11.372;2024-01-15T00:58:08;6.40;56.80
18085;DHT22;9169;44.492;11.372;2024-01-15T01:00:36;6.40;56.80
18085;DHT22;9169;44.492;11.372;2024-01-15T01:03:05;6.40;56.80
18085;DHT22;9169;44.492;11.372;2024-01-15T01:05:34;6.50;56.90
18085;DHT22;9169;44.492;11.372;2024-01-15T01:08:03;6.50;56.90
18085;DHT22;9169;44.492;11.372;2024-01-15T01:10:32;6.50;56.90
18085;DHT22;9169;44.492;11.372;2024-01-15T01:13:00;6.50;56.90
18085;DHT22;9169;44.492;11.372;2024-01-15T01:15:31;6.50;56.90
18085;DHT22;9169;44.492;11.372;2024-01-15T01:18:00;6.50;56.90
18085;DHT22;9169;44.492;11.372;2024-01-15T01:20:28;6.50;56.90
18085;DHT22;9169;44.492;11.372;2024-01-15T01:22:57;6.60;56.90
18085;DHT22;9169;44.492;11.372;2024-01-15T01:25:26;6.60;56.90
18085;DHT22;9169;44.492;11.372;2024-01-15T01:27:54;6.60;56.80
18085;DHT22;9169;44.492;11.372;2024-01-15T01:30:23;6.60;57.30
18085;DHT22;9169;44.492;11.372;2024-01-15T01:32:53;6.60;56.80
18085;DHT22;9169;44.492;11.372;2024-01-15T01:35:22;6.60;56.80
18085;DHT22;9169;44.492;11.372;2024-01-15T01:37:51;6.60;56.80
18085;DHT22;9169;44.492;11.372;2024-01-15T01:40:20;6.60;56.70
18085;DHT22;9169;44.492;11.372;2024-01-15T01:42:48;6.60;56.70
18085;DHT22;9169;44.492;11.372;2024-01-15T01:45:17;6.60;56.70
18085;DHT22;9169;44.492;11.372;2024-01-15T01:47:46;6.60;56.70
18085;DHT22;9169;44.492;11.372;2024-01-15T01:50:16;6.70;56.80
18085;DHT22;9169;44.492;11.372;2024-01-15T01:52:45;6.70;56.70
18085;DHT22;9169;44.492;11.372;2024-01-15T01:55:14;6.60;56.70
18085;DHT22;9169;44.492;11.372;2024-01-15T01:57:43;6.60;56.80
18085;DHT22;9169;44.492;11.372;2024-01-15T02:00:13;6.70;56.90
18085;DHT22;9169;44.492;11.372;2024-01-15T02:02:45;6.60;56.80
18085;DHT22;9169;44.492;11.372;2024-01-15T02:05:19;6.70;56.80
18085;DHT22;9169;44.492;11.372;2024-01-15T02:07:49;6.70;56.80
18085;DHT22;9169;44.492;11.372;2024-01-15T02:10:18;6.70;56.70
18085;DHT22;9169;44.492;11.372;2024-01-15T02:12:47;6.70;56.70
18085;DHT22;9169;44.492;11.372;2024-01-15T02:15:16;6.70;57.20
18085;DHT22;9169;44.492;11.372;2024-01-15T02:17:58;6.70;56.60
18085;DHT22;9169;44.492;11.372;2024-01-15T02:20:28;6.80;56.70
18085;DHT22;9169;44.492;11.372;2024-01-15T02:23:12;6.80;56.60
18085;DHT22;9169;44.492;11.372;2024-01-15T02:25:42;6.80;56.70
18085;DHT22;9169;44.492;11.372;2024-01-15T02:28:13;6.80;56.60
18085;DHT22;9169;44.492;11.372;2024-01-15T02:30:43;6.80;56.70
18085;DHT22;9169;44.492;11.372;2024-01-15T02:33:12;6.90;56.70
18085;DHT22;9169;44.492;11.372;2024-01-15T02:35:41;6.80;56.70
18085;DHT22;9169;44.492;11.372;2024-01-15T02:38:11;6.80;56.70
18085;DHT22;9169;44.492;11.372;2024-01-15T02:40:39;6.80;56.70
18085;DHT22;9169;44.492;11.372;2024-01-15T02:43:08;6.80;56.70
18085;DHT22;9169;44.492;11.372;2024-01-15T02:45:37;6.80;56.60
18085;DHT22;9169;44.492;11.372;2024-01-15T02:48:06;6.80;56.60
18085;DHT22;9169;44.492;11.372;2024-01-15T02:50:35;6.80;56.60
18085;DHT22;9169;44.492;11.372;2024-01-15T02:53:04;6.80;56.70
18085;DHT22;9169;44.492;11.372;2024-01-15T02:55:34;6.80;56.70
18085;DHT22;9169;44.492;11.372;2024-01-15T02:58:03;6.80;56.70
18085;DHT22;9169;44.492;11.372;2024-01-15T03:00:33;6.80;56.70
18085;DHT22;9169;44.492;11.372;2024-01-15T03:03:02;6.80;56.70
18085;DHT22;9169;44.492;11.372;2024-01-15T03:05:30;6.90;56.80
18085;DHT22;9169;44.492;11.372;2024-01-15T03:07:59;6.90;56.80
18085;DHT22;9169;44.492;11.372;2024-01-15T03:10:28;6.90;56.80
18085;DHT22;9169;44.492;11.372;2024-01-15T03:12:58;6.90;56.80
18085;DHT22;9169;44.492;11.372;2024-01-15T03:15:27;7.00;56.90
18085;DHT22;9169;44.492;11.372;2024-01-15T03:17:56;7.00;56.80
18085;DHT22;9169;44.492;11.372;2024-01-15T03:20:25;7.00;56.80
18085;DHT22;9169;44.492;11.372;2024-01-15T03:22:54;7.00;56.80
18085;DHT22;9169;44.492;11.372;2024-01-15T03:25:22;7.00;56.90
18085;DHT22;9169;44.492;11.372;2024-01-15T03:27:51;7.00;56.90
18085;DHT22;9169;44.492;11.372;2024-01-15T03:30:21;7.00;56.90
18085;DHT22;9169;44.492;11.372;2024-01-15T03:32:50;6.90;56.90
18085;DHT22;9169;44.492;11.372;2024-01-15T03:35:19;7.10;57.00
18085;DHT22;9169;44.492;11.372;2024-01-15T03:37:47;7.10;57.10
18085;DHT22;9169;44.492;11.372;2024-01-15T03:40:16;7.10;57.10
18085;DHT22;9169;44.492;11.372;2024-01-15T03:42:46;7.10;57.10
18085;DHT22;9169;44.492;11.372;2024-01-15T03:45:15;7.20;57.20
18085;DHT22;9169;44.492;11.372;2024-01-15T03:47:45;7.20;57.10
18085;DHT22;9169;44.492;11.372;2024-01-15T03:50:14;7.20;57.10
18085;DHT22;9169;44.492;11.372;2024-01-15T03:52:42;7.20;57.10
18085;DHT22;9169;44.492;11.372;2024-01-15T03:55:11;7.30;57.20
18085;DHT22;9169;44.492;11.372;2024-01-15T03:57:40;7.30;57.10
18085;DHT22;9169;44.492;11.372;2024-01-15T04:00:10;7.20;57.00
18085;DHT22;9169;44.492;11.372;2024-01-15T04:02:39;7.20;57.00
18085;DHT22;9169;44.492;11.372;2024-01-15T04:05:09;7.20;57.00
18085;DHT22;9169;44.492;11.372;2024-01-15T04:07:38;7.30;57.00
18085;DHT22;9169;44.492;11.372;2024-01-15T04:10:07;7.40;57.10
18085;DHT22;9169;44.492;11.372;2024-01-15T04:12:36;7.30;57.10
18085;DHT22;9169;44.492;11.372;2024-01-15T04:15:05;7.30;57.60
18085;DHT22;9169;44.492;11.372;2024-01-15T04:17:34;7.30;57.10
18085;DHT22;9169;44.492;11.372;2024-01-15T04:20:04;7.30;57.10
18085;DHT22;9169;44.492;11.372;2024-01-15T04:22:35;7.20;57.10
18085;DHT22;9169;44.492;11.372;2024-01-15T04:25:05;7.20;57.10
18085;DHT22;9169;44.492;11.372;2024-01-15T04:27:34;7.20;57.20
18085;DHT22;9169;44.492;11.372;2024-01-15T04:30:03;7.20;57.20
18085;DHT22;9169;44.492;11.372;2024-01-15T04:32:32;7.10;57.20
18085;DHT22;9169;44.492;11.372;2024-01-15T04:35:01;7.20;57.30
18085;DHT22;9169;44.492;11.372;2024-01-15T04:37:30;7.20;57.40
18085;DHT22;9169;44.492;11.372;2024-01-15T04:40:00;7.20;57.40
18085;DHT22;9169;44.492;11.372;2024-01-15T04:42:31;7.20;57.40
18085;DHT22;9169;44.492;11.372;2024-01-15T04:45:00;7.20;57.40
18085;DHT22;9169;44.492;11.372;2024-01-15T04:47:29;7.20;57.40
18085;DHT22;9169;44.492;11.372;2024-01-15T04:49:57;7.20;57.40
18085;DHT22;9169;44.492;11.372;2024-01-15T04:52:26;7.20;57.40
18085;DHT22;9169;44.492;11.372;2024-01-15T04:54:55;7.20;57.40
18085;DHT22;9169;44.492;11.372;2024-01-15T04:57:25;7.20;57.30
18085;DHT22;9169;44.492;11.372;2024-01-15T04:59:54;7.20;57.30
18085;DHT22;9169;44.492;11.372;2024-01-15T05:02:22;7.20;57.30
18085;DHT22;9169;44.492;11.372;2024-01-15T05:04:51;7.20;57.30
18085;DHT22;9169;44.492;11.372;2024-01-15T05:07:20;7.20;57.30
18085;DHT22;9169;44.492;11.372;2024-01-15T05:09:49;7.30;57.40
18085;DHT22;9169;44.492;11.372;2024-01-15T05:12:17;7.30;57.40
18085;DHT22;9169;44.492;11.372;2024-01-15T05:14:48;7.30;57.30
18085;DHT22;9169;44.492;11.372;2024-01-15T05:17:16;7.30;57.30
18085;DHT22;9169;44.492;11.372;2024-01-15T05:19:45;7.30;57.70
18085;DHT22;9169;44.492;11.372;2024-01-15T05:22:14;7.30;57.20
18085;DHT22;9169;44.492;11.372;2024-01-15T05:24:43;7.30;57.10
18085;DHT22;9169;44.492;11.372;2024-01-15T05:27:12;7.30;57.10
18085;DHT22;9169;44.492;11.372;2024-01-15T05:29:41;7.30;57.10
18085;DHT22;9169;44.492;11.372;2024-01-15T05:32:14;7.40;57.10
18085;DHT22;9169;44.492;11.372;2024-01-15T05:34:42;7.40;57.10
18085;DHT22;9169;44.492;11.372;2024-01-15T05:37:11;7.40;57.00
18085;DHT22;9169;44.492;11.372;2024-01-15T05:39:40;7.40;57.00
18085;DHT22;9169;44.492;11.372;2024-01-15T05:42:09;7.30;57.00
18085;DHT22;9169;44.492;11.372;2024-01-15T05:44:38;7.30;57.00
18085;DHT22;9169;44.492;11.372;2024-01-15T05:47:07;7.30;57.00
18085;DHT22;9169;44.492;11.372;2024-01-15T05:49:37;7.30;57.10
18085;DHT22;9169;44.492;11.372;2024-01-15T05:52:06;7.40;57.20
18085;DHT22;9169;44.492;11.372;2024-01-15T05:54:35;7.40;57.20
18085;DHT22;9169;44.492;11.372;2024-01-15T05:57:04;7.40;57.30
18085;DHT22;9169;44.492;11.372;2024-01-15T05:59:33;7.40;57.20
18085;DHT22;9169;44.492;11.372;2024-01-15T06:02:03;7.40;57.20
18085;DHT22;9169;44.492;11.372;2024-01-15T06:04:32;7.40;57.10
18085;DHT22;9169;44.492;11.372;2024-01-15T06:07:02;7.40;57.10
18085;DHT22;9169;44.492;11.372;2024-01-15T06:09:31;7.30;57.10
18085;DHT22;9169;44.492;11.372;2024-01-15T06:12:00;7.30;57.10
18085;DHT22;9169;44.492;11.372;2024-01-15T06:14:28;7.30;57.20
18085;DHT22;9169;44.492;11.372;2024-01-15T06:16:57;7.30;57.10
18085;DHT22;9169;44.492;11.372;2024-01-15T06:19:26;7.30;57.10
18085;DHT22;9169;44.492;11.372;2024-01-15T06:21:55;7.20;57.10
18085;DHT22;9169;44.492;11.372;2024-01-15T06:24:25;7.20;57.20
18085;DHT22;9169;44.492;11.372;2024-01-15T06:26:54;7.20;57.20
18085;DHT22;9169;44.492;11.372;2024-01-15T06:29:25;7.20;57.30
18085;DHT22;9169;44.492;11.372;2024-01-15T06:31:54;7.20;57.40
18085;DHT22;9169;44.492;11.372;2024-01-15T06:34:23;7.10;57.40
18085;DHT22;9169;44.492;11.372;2024-01-15T06:36:52;7.00;57.40
18085;DHT22;9169;44.492;11.372;2024-01-15T06:39:21;7.10;57.50
18085;DHT22;9169;44.492;11.372;2024-01-15T06:41:51;7.10;57.50
18085;DHT22;9169;44.492;11.372;2024-01-15T06:44:20;7.10;57.50
18085;DHT22;9169;44.492;11.372;2024-01-15T06:46:49;7.10;57.50
18085;DHT22;9169;44.492;11.372;2024-01-15T06:49:19;7.10;57.50
18085;DHT22;9169;44.492;11.372;2024-01-15T06:51:47;7.00;57.50
18085;DHT22;9169;44.492;11.372;2024-01-15T06:54:16;7.10;57.60
18085;DHT22;9169;44.492;11.372;2024-01-15T06:56:45;7.10;57.50
18085;DHT22;9169;44.492;11.372;2024-01-15T06:59:15;7.10;57.50
18085;DHT22;9169;44.492;11.372;2024-01-15T07:01:44;7.10;57.40
18085;DHT22;9169;44.492;11.372;2024-01-15T07:04:13;7.10;57.50
18085;DHT22;9169;44.492;11.372;2024-01-15T07:06:42;7.10;57.40
18085;DHT22;9169;44.492;11.372;2024-01-15T07:09:11;7.10;57.40
18085;DHT22;9169;44.492;11.372;2024-01-15T07:11:44;7.10;57.40
18085;DHT22;9169;44.492;11.372;2024-01-15T07:14:15;7.10;57.40
18085;DHT22;9169;44.492;11.372;2024-01-15T07:16:44;7.10;57.40
18085;DHT22;9169;44.492;11.372;2024-01-15T07:19:14;7.20;57.50
18085;DHT22;9169;44.492;11.372;2024-01-15T07:21:43;7.20;57.50
18085;DHT22;9169;44.492;11.372;2024-01-15T07:24:11;7.20;58.00
18085;DHT22;9169;44.492;11.372;2024-01-15T07:26:40;7.20;57.60
18085;DHT22;9169;44.492;11.372;2024-01-15T07:29:09;7.20;57.60
18085;DHT22;9169;44.492;11.372;2024-01-15T07:31:39;7.20;57.60
18085;DHT22;9169;44.492;11.372;2024-01-15T07:34:08;7.30;57.70
18085;DHT22;9169;44.492;11.372;2024-01-15T07:36:36;7.30;57.70
18085;DHT22;9169;44.492;11.372;2024-01-15T07:39:05;7.30;57.80
18085;DHT22;9169;44.492;11.372;2024-01-15T07:41:34;7.30;57.80
18085;DHT22;9169;44.492;11.372;2024-01-15T07:44:04;7.40;58.00
18085;DHT22;9169;44.492;11.372;2024-01-15T07:46:33;7.40;58.10
18085;DHT22;9169;44.492;11.372;2024-01-15T07:49:03;7.40;58.10
18085;DHT22;9169;44.492;11.372;2024-01-15T07:51:32;7.50;58.30
18085;DHT22;9169;44.492;11.372;2024-01-15T07:54:01;7.50;58.40
18085;DHT22;9169;44.492;11.372;2024-01-15T07:56:30;7.60;58.50
18085;DHT22;9169;44.492;11.372;2024-01-15T07:58:59;7.60;58.50
18085;DHT22;9169;44.492;11.372;2024-01-15T08:01:28;7.60;58.50
18085;DHT22;9169;44.492;11.372;2024-01-15T08:03:57;7.70;58.60
18085;DHT22;9169;44.492;11.372;2024-01-15T08:06:27;7.70;58.50
18085;DHT22;9169;44.492;11.372;2024-01-15T08:08:55;7.80;58.50
18085;DHT22;9169;44.492;11.372;2024-01-15T08:11:24;7.80;58.40
18085;DHT22;9169;44.492;11.372;2024-01-15T08:13:53;7.80;58.40
18085;DHT22;9169;44.492;11.372;2024-01-15T08:16:22;7.80;58.40
18085;DHT22;9169;44.492;11.372;2024-01-15T08:18:51;7.90;58.50
18085;DHT22;9169;44.492;11.372;2024-01-15T08:21:21;8.00;58.60
18085;DHT22;9169;44.492;11.372;2024-01-15T08:23:51;8.00;58.40
18085;DHT22;9169;44.492;11.372;2024-01-15T08:26:19;8.00;58.20
18085;DHT22;9169;44.492;11.372;2024-01-15T08:28:48;8.00;58.00
18085;DHT22;9169;44.492;11.372;2024-01-15T08:31:17;8.00;57.80
18085;DHT22;9169;44.492;11.372;2024-01-15T08:33:46;8.00;57.70
18085;DHT22;9169;44.492;11.372;2024-01-15T08:36:14;8.00;57.80
18085;DHT22;9169;44.492;11.372;2024-01-15T08:38:43;8.00;57.80
18085;DHT22;9169;44.492;11.372;2024-01-15T08:41:14;8.00;57.80
18085;DHT22;9169;44.492;11.372;2024-01-15T08:43:42;8.00;57.90
18085;DHT22;9169;44.492;11.372;2024-01-15T08:46:11;8.00;57.90
18085;DHT22;9169;44.492;11.372;2024-01-15T08:48:40;7.90;58.00
18085;DHT22;9169;44.492;11.372;2024-01-15T08:51:09;8.00;59.10
18085;DHT22;9169;44.492;11.372;2024-01-15T08:53:37;8.20;62.40
18085;DHT22;9169;44.492;11.372;2024-01-15T08:56:06;8.60;67.10
18085;DHT22;9169;44.492;11.372;2024-01-15T08:58:37;9.10;70.10
18085;DHT22;9169;44.492;11.372;2024-01-15T09:01:05;9.60;71.20
18085;DHT22;9169;44.492;11.372;2024-01-15T09:03:35;10.20;70.60
18085;DHT22;9169;44.492;11.372;2024-01-15T09:06:05;10.80;69.90
18085;DHT22;9169;44.492;11.372;2024-01-15T09:08:34;11.30;66.10
18085;DHT22;9169;44.492;11.372;2024-01-15T09:11:02;11.50;62.60
18085;DHT22;9169;44.492;11.372;2024-01-15T09:13:31;11.60;60.40
18085;DHT22;9169;44.492;11.372;2024-01-15T09:16:02;11.60;59.10
18085;DHT22;9169;44.492;11.372;2024-01-15T09:18:31;11.70;57.70
18085;DHT22;9169;44.492;11.372;2024-01-15T09:20:59;11.50;56.50
18085;DHT22;9169;44.492;11.372;2024-01-15T09:23:28;11.40;55.80
18085;DHT22;9169;44.492;11.372;2024-01-15T09:25:57;11.20;55.10
18085;DHT22;9169;44.492;11.372;2024-01-15T09:28:26;11.10;55.80
18085;DHT22;9169;44.492;11.372;2024-01-15T09:30:55;10.90;54.70
18085;DHT22;9169;44.492;11.372;2024-01-15T09:33:25;10.80;54.20
18085;DHT22;9169;44.492;11.372;2024-01-15T09:35:54;10.70;54.20
18085;DHT22;9169;44.492;11.372;2024-01-15T09:38:22;10.60;54.20
18085;DHT22;9169;44.492;11.372;2024-01-15T09:40:52;10.60;54.20
18085;DHT22;9169;44.492;11.372;2024-01-15T09:43:21;10.60;54.10
18085;DHT22;9169;44.492;11.372;2024-01-15T09:45:51;10.50;54.20
18085;DHT22;9169;44.492;11.372;2024-01-15T09:48:20;10.50;54.20
18085;DHT22;9169;44.492;11.372;2024-01-15T09:50:51;10.50;54.20
18085;DHT22;9169;44.492;11.372;2024-01-15T09:53:20;10.50;54.20
18085;DHT22;9169;44.492;11.372;2024-01-15T09:55:50;10.50;54.20
18085;DHT22;9169;44.492;11.372;2024-01-15T09:58:19;10.50;54.20
18085;DHT22;9169;44.492;11.372;2024-01-15T10:00:48;10.40;54.10
18085;DHT22;9169;44.492;11.372;2024-01-15T10:03:18;10.40;54.20
18085;DHT22;9169;44.492;11.372;2024-01-15T10:05:50;10.40;54.10
18085;DHT22;9169;44.492;11.372;2024-01-15T10:08:19;10.30;54.10
18085;DHT22;9169;44.492;11.372;2024-01-15T10:10:48;10.20;54.10
18085;DHT22;9169;44.492;11.372;2024-01-15T10:13:17;10.20;54.10
18085;DHT22;9169;44.492;11.372;2024-01-15T10:15:46;10.10;54.10
18085;DHT22;9169;44.492;11.372;2024-01-15T10:18:15;10.00;54.20
18085;DHT22;9169;44.492;11.372;2024-01-15T10:20:45;9.90;55.20
18085;DHT22;9169;44.492;11.372;2024-01-15T10:23:15;9.90;55.40
18085;DHT22;9169;44.492;11.372;2024-01-15T10:25:44;9.90;55.70
18085;DHT22;9169;44.492;11.372;2024-01-15T10:28:13;9.90;55.70
18085;DHT22;9169;44.492;11.372;2024-01-15T10:30:42;9.90;55.90
18085;DHT22;9169;44.492;11.372;2024-01-15T10:33:11;9.90;56.10
18085;DHT22;9169;44.492;11.372;2024-01-15T10:35:41;9.90;56.20
18085;DHT22;9169;44.492;11.372;2024-01-15T10:38:09;9.90;56.30
18085;DHT22;9169;44.492;11.372;2024-01-15T10:40:39;10.00;55.60
18085;DHT22;9169;44.492;11.372;2024-01-15T10:43:10;10.00;55.60
18085;DHT22;9169;44.492;11.372;2024-01-15T10:45:38;10.10;55.70
18085;DHT22;9169;44.492;11.372;2024-01-15T10:48:07;10.10;55.70
18085;DHT22;9169;44.492;11.372;2024-01-15T10:50:36;10.20;55.80
18085;DHT22;9169;44.492;11.372;2024-01-15T10:53:05;10.20;55.80
18085;DHT22;9169;44.492;11.372;2024-01-15T10:55:35;10.30;55.90
18085;DHT22;9169;44.492;11.372;2024-01-15T10:58:07;10.30;55.90
18085;DHT22;9169;44.492;11.372;2024-01-15T11:00:36;10.30;55.80
18085;DHT22;9169;44.492;11.372;2024-01-15T11:03:06;10.20;55.80
18085;DHT22;9169;44.492;11.372;2024-01-15T11:05:37;10.20;55.80
18085;DHT22;9169;44.492;11.372;2024-01-15T11:08:07;10.10;55.80
18085;DHT22;9169;44.492;11.372;2024-01-15T11:10:40;10.10;56.00
18085;DHT22;9169;44.492;11.372;2024-01-15T11:13:14;10.20;56.20
18085;DHT22;9169;44.492;11.372;2024-01-15T11:15:58;10.30;56.40
18085;DHT22;9169;44.492;11.372;2024-01-15T11:18:28;10.30;56.40
18085;DHT22;9169;44.492;11.372;2024-01-15T11:21:22;10.40;56.50
18085;DHT22;9169;44.492;11.372;2024-01-15T11:23:55;10.50;56.40
18085;DHT22;9169;44.492;11.372;2024-01-15T11:26:30;10.50;56.60
18085;DHT22;9169;44.492;11.372;2024-01-15T11:29:01;10.60;56.60
18085;DHT22;9169;44.492;11.372;2024-01-15T11:32:02;10.70;56.70
18085;DHT22;9169;44.492;11.372;2024-01-15T11:34:54;10.70;56.60
18085;DHT22;9169;44.492;11.372;2024-01-15T11:37:27;10.70;56.30
18085;DHT22;9169;44.492;11.372;2024-01-15T11:39:59;10.60;56.10
18085;DHT22;9169;44.492;11.372;2024-01-15T11:42:31;10.60;56.20
18085;DHT22;9169;44.492;11.372;2024-01-15T11:45:01;10.60;56.40
18085;DHT22;9169;44.492;11.372;2024-01-15T11:50:30;10.60;56.50
18085;DHT22;9169;44.492;11.372;2024-01-15T11:53:01;10.70;56.70
18085;DHT22;9169;44.492;11.372;2024-01-15T11:55:34;10.70;56.70
18085;DHT22;9169;44.492;11.372;2024-01-15T11:58:08;10.70;56.70
18085;DHT22;9169;44.492;11.372;2024-01-15T12:00:42;10.70;56.60
18085;DHT22;9169;44.492;11.372;2024-01-15T12:03:11;10.80;56.50
18085;DHT22;9169;44.492;11.372;2024-01-15T12:05:40;10.80;56.50
18085;DHT22;9169;44.492;11.372;2024-01-15T12:08:10;10.80;56.50
18085;DHT22;9169;44.492;11.372;2024-01-15T12:10:40;10.80;56.50
18085;DHT22;9169;44.492;11.372;2024-01-15T12:13:11;10.80;56.60
18085;DHT22;9169;44.492;11.372;2024-01-15T12:15:42;10.80;56.60
18085;DHT22;9169;44.492;11.372;2024-01-15T12:18:13;10.90;56.70
18085;DHT22;9169;44.492;11.372;2024-01-15T12:20:43;10.90;56.70
18085;DHT22;9169;44.492;11.372;2024-01-15T12:23:14;10.90;56.60
18085;DHT22;9169;44.492;11.372;2024-01-15T12:25:44;10.90;56.60
18085;DHT22;9169;44.492;11.372;2024-01-15T12:28:13;10.90;56.50
18085;DHT22;9169;44.492;11.372;2024-01-15T12:30:46;11.00;56.70
18085;DHT22;9169;44.492;11.372;2024-01-15T12:33:18;11.00;56.60
18085;DHT22;9169;44.492;11.372;2024-01-15T12:35:48;11.00;56.70
18085;DHT22;9169;44.492;11.372;2024-01-15T12:38:19;11.10;56.80
18085;DHT22;9169;44.492;11.372;2024-01-15T12:40:48;11.10;56.80
18085;DHT22;9169;44.492;11.372;2024-01-15T12:43:17;11.10;56.70
18085;DHT22;9169;44.492;11.372;2024-01-15T12:45:47;11.20;56.90
18085;DHT22;9169;44.492;11.372;2024-01-15T12:48:16;11.20;56.80
18085;DHT22;9169;44.492;11.372;2024-01-15T12:50:45;11.30;56.90
18085;DHT22;9169;44.492;11.372;2024-01-15T12:53:15;11.30;56.80
18085;DHT22;9169;44.492;11.372;2024-01-15T12:55:44;11.30;56.70
18085;DHT22;9169;44.492;11.372;2024-01-15T12:58:14;11.40;56.80
18085;DHT22;9169;44.492;11.372;2024-01-15T13:00:44;11.40;56.60
18085;DHT22;9169;44.492;11.372;2024-01-15T13:03:15;11.40;56.50
18085;DHT22;9169;44.492;11.372;2024-01-15T13:05:44;11.40;56.50
18085;DHT22;9169;44.492;11.372;2024-01-15T13:08:13;11.50;56.50
18085;DHT22;9169;44.492;11.372;2024-01-15T13:10:42;11.40;56.40
18085;DHT22;9169;44.492;11.372;2024-01-15T13:13:11;11.50;56.50
18085;DHT22;9169;44.492;11.372;2024-01-15T13:15:40;11.50;56.50
18085;DHT22;9169;44.492;11.372;2024-01-15T13:18:09;11.60;56.60
18085;DHT22;9169;44.492;11.372;2024-01-15T13:20:39;11.60;56.60
18085;DHT22;9169;44.492;11.372;2024-01-15T13:23:08;11.60;56.60
18085;DHT22;9169;44.492;11.372;2024-01-15T13:25:37;11.60;56.50
18085;DHT22;9169;44.492;11.372;2024-01-15T13:28:06;11.70;56.60
18085;DHT22;9169;44.492;11.372;2024-01-15T13:30:35;11.70;56.50
18085;DHT22;9169;44.492;11.372;2024-01-15T13:33:05;11.70;56.50
18085;DHT22;9169;44.492;11.372;2024-01-15T13:35:33;11.70;56.50
18085;DHT22;9169;44.492;11.372;2024-01-15T13:38:05;11.70;56.50
18085;DHT22;9169;44.492;11.372;2024-01-15T13:40:36;11.80;56.50
18085;DHT22;9169;44.492;11.372;2024-01-15T13:43:04;11.80;56.40
18085;DHT22;9169;44.492;11.372;2024-01-15T13:45:35;11.80;56.40
18085;DHT22;9169;44.492;11.372;2024-01-15T13:48:05;11.80;56.40
18085;DHT22;9169;44.492;11.372;2024-01-15T13:50:35;11.90;56.50
18085;DHT22;9169;44.492;11.372;2024-01-15T13:53:06;11.90;56.60
18085;DHT22;9169;44.492;11.372;2024-01-15T13:55:37;11.90;57.00
18085;DHT22;9169;44.492;11.372;2024-01-15T13:58:05;12.20;59.90
18085;DHT22;9169;44.492;11.372;2024-01-15T14:00:34;12.60;64.40
18085;DHT22;9169;44.492;11.372;2024-01-15T14:03:03;13.20;65.60
18085;DHT22;9169;44.492;11.372;2024-01-15T14:05:32;13.80;67.10
18085;DHT22;9169;44.492;11.372;2024-01-15T14:08:01;14.50;67.10
18085;DHT22;9169;44.492;11.372;2024-01-15T14:10:32;15.20;65.40
18085;DHT22;9169;44.492;11.372;2024-01-15T14:13:00;15.70;61.50
18085;DHT22;9169;44.492;11.372;2024-01-15T14:15:29;15.90;58.60
18085;DHT22;9169;44.492;11.372;2024-01-15T14:17:58;16.10;56.70
18085;DHT22;9169;44.492;11.372;2024-01-15T14:20:28;16.10;55.20
18085;DHT22;9169;44.492;11.372;2024-01-15T14:22:56;15.90;54.10
18085;DHT22;9169;44.492;11.372;2024-01-15T14:25:25;15.90;54.30
18085;DHT22;9169;44.492;11.372;2024-01-15T14:27:55;15.90;54.30
18085;DHT22;9169;44.492;11.372;2024-01-15T14:30:24;15.90;53.70
18085;DHT22;9169;44.492;11.372;2024-01-15T14:32:53;15.90;53.20
18085;DHT22;9169;44.492;11.372;2024-01-15T14:35:21;15.90;52.60
18085;DHT22;9169;44.492;11.372;2024-01-15T14:37:50;15.80;52.10
18085;DHT22;9169;44.492;11.372;2024-01-15T14:40:19;15.70;51.50
18085;DHT22;9169;44.492;11.372;2024-01-15T14:42:48;15.60;51.30
18085;DHT22;9169;44.492;11.372;2024-01-15T14:45:18;15.40;51.10
18085;DHT22;9169;44.492;11.372;2024-01-15T14:47:46;15.20;50.90
18085;DHT22;9169;44.492;11.372;2024-01-15T14:50:15;15.10;50.90
18085;DHT22;9169;44.492;11.372;2024-01-15T14:52:44;14.90;50.90
18085;DHT22;9169;44.492;11.372;2024-01-15T14:55:16;14.70;51.30
18085;DHT22;9169;44.492;11.372;2024-01-15T14:57:44;14.60;50.90
18085;DHT22;9169;44.492;11.372;2024-01-15T15:00:13;14.40;50.90
18085;DHT22;9169;44.492;11.372;2024-01-15T15:02:45;14.30;51.00
18085;DHT22;9169;44.492;11.372;2024-01-15T15:05:15;14.10;51.00
18085;DHT22;9169;44.492;11.372;2024-01-15T15:07:44;14.00;51.10
18085;DHT22;9169;44.492;11.372;2024-01-15T15:10:13;13.90;51.30
18085;DHT22;9169;44.492;11.372;2024-01-15T15:12:42;13.70;51.30
18085;DHT22;9169;44.492;11.372;2024-01-15T15:15:11;13.60;51.40
18085;DHT22;9169;44.492;11.372;2024-01-15T15:17:41;13.50;51.50
18085;DHT22;9169;44.492;11.372;2024-01-15T15:20:11;13.40;51.60
18085;DHT22;9169;44.492;11.372;2024-01-15T15:22:40;13.30;51.70
18085;DHT22;9169;44.492;11.372;2024-01-15T15:25:10;13.20;51.80
18085;DHT22;9169;44.492;11.372;2024-01-15T15:27:39;13.10;51.90
18085;DHT22;9169;44.492;11.372;2024-01-15T15:30:09;13.00;52.10
18085;DHT22;9169;44.492;11.372;2024-01-15T15:32:38;12.90;52.10
18085;DHT22;9169;44.492;11.372;2024-01-15T15:35:07;12.80;52.30
18085;DHT22;9169;44.492;11.372;2024-01-15T15:37:38;12.70;52.40
18085;DHT22;9169;44.492;11.372;2024-01-15T15:40:08;12.60;52.40
18085;DHT22;9169;44.492;11.372;2024-01-15T15:42:38;12.50;52.50
18085;DHT22;9169;44.492;11.372;2024-01-15T15:45:07;12.50;52.70
18085;DHT22;9169;44.492;11.372;2024-01-15T15:47:36;12.40;52.80
18085;DHT22;9169;44.492;11.372;2024-01-15T15:50:07;12.30;52.80
18085;DHT22;9169;44.492;11.372;2024-01-15T15:52:40;12.30;53.00
18085;DHT22;9169;44.492;11.372;2024-01-15T15:55:08;12.20;53.10
18085;DHT22;9169;44.492;11.372;2024-01-15T15:57:37;12.20;53.30